Shannon, Arkansas
Current Conditions -  °F | °C
As of 7:53 PM on Saturday 22 Nov 2014 (Local Time) from KPBF Reporting Station
Overcast Overcast  
Wind Chill: 59°   Ceiling: 3800
Heat Index: 59°   Visibility: 10mi
Dew Point: 54°   Wind: 5mph
Humidity: 83%   Direction: 90°E
Pressure: 29.96"   Gusts: NA
Location:  33.9785°N, 91.6862°W
Report Text: KPBF 230153Z AUTO 09004KT 10SM BKN038 OVC047 15/12 A2996 RMK AO2 SLP146 T01500122
Loading
Personal Weather Stations






























Interactive Weather Map New forecast layout! Learn more

10-Day Weather Forecast

Advertisements
Track Severe Weather on mobile